createdAt,value
2019-05-22T00:02:21.900Z,58.22
2019-05-22T00:04:59.065Z,59.83
2019-05-22T00:07:28.599Z,59.06
2019-05-22T00:09:58.778Z,56.57
2019-05-22T00:12:28.711Z,57.69
2019-05-22T00:14:58.514Z,55.48
2019-05-22T00:17:30.716Z,57.67
2019-05-22T00:20:00.472Z,61.93
2019-05-22T00:22:31.233Z,58.21
2019-05-22T00:25:01.347Z,60.24
2019-05-22T00:27:32.356Z,61.43
2019-05-22T00:30:02.116Z,58.59
2019-05-22T00:32:31.079Z,59.17
2019-05-22T00:35:00.252Z,58.52
2019-05-22T00:37:29.048Z,59.90
2019-05-22T00:40:00.081Z,59.66
2019-05-22T00:42:28.980Z,60.22
2019-05-22T00:44:59.400Z,62.36
2019-05-22T00:47:28.955Z,59.43
2019-05-22T00:49:59.476Z,59.12
2019-05-22T00:52:52.470Z,59.94
2019-05-22T00:55:40.196Z,61.49
2019-05-22T00:58:30.753Z,62.60
2019-05-22T01:01:05.937Z,60.05
2019-05-22T01:03:36.345Z,57.31
2019-05-22T01:06:05.735Z,58.81
2019-05-22T01:08:37.522Z,59.05
2019-05-22T01:11:08.062Z,62.40
2019-05-22T01:13:37.809Z,63.25
2019-05-22T01:16:10.201Z,64.35
2019-05-22T01:18:39.512Z,60.30
2019-05-22T01:21:10.235Z,59.72
2019-05-22T01:23:39.853Z,60.50
2019-05-22T01:26:11.243Z,57.69
2019-05-22T01:28:40.648Z,55.42
2019-05-22T01:31:17.528Z,56.25
2019-05-22T01:33:51.988Z,59.79
2019-05-22T01:36:26.254Z,60.67
2019-05-22T01:38:57.720Z,56.21
2019-05-22T01:41:30.311Z,57.96
2019-05-22T01:44:00.199Z,59.01
2019-05-22T01:46:32.972Z,57.61
2019-05-22T01:49:03.973Z,58.35
2019-05-22T01:51:32.583Z,55.45
2019-05-22T01:54:02.549Z,56.70
2019-05-22T01:56:34.808Z,59.02
2019-05-22T01:59:04.638Z,57.01
2019-05-22T02:01:33.781Z,57.30
2019-05-22T02:04:02.529Z,58.53
2019-05-22T02:06:31.172Z,55.51
2019-05-22T02:09:11.847Z,58.17
2019-05-22T02:11:40.720Z,57.27
2019-05-22T02:14:12.333Z,57.63
2019-05-22T02:16:56.186Z,59.85
2019-05-22T02:19:15.189Z,59.51
2019-05-22T02:21:44.296Z,58.63
2019-05-22T02:24:13.298Z,58.16
2019-05-22T02:26:42.916Z,59.72
2019-05-22T02:29:13.278Z,60.28
2019-05-22T02:31:43.797Z,58.31
2019-05-22T02:34:12.494Z,62.31
2019-05-22T02:36:42.476Z,62.26
2019-05-22T02:39:18.722Z,64.72
2019-05-22T02:41:52.436Z,62.57
2019-05-22T02:44:22.854Z,65.08
2019-05-22T02:46:53.046Z,61.13
2019-05-22T02:49:22.102Z,63.70
2019-05-22T02:51:52.783Z,60.37
2019-05-22T02:54:21.902Z,58.63
2019-05-22T02:56:51.206Z,59.83
2019-05-22T02:59:21.360Z,58.05
2019-05-22T03:01:51.261Z,59.37
2019-05-22T03:04:20.005Z,58.20
2019-05-22T03:06:48.965Z,58.05
2019-05-22T03:09:29.997Z,56.76
2019-05-22T03:12:04.048Z,57.51
2019-05-22T03:14:34.501Z,58.59
2019-05-22T03:17:05.698Z,58.33
2019-05-22T03:19:39.033Z,59.37
2019-05-22T03:22:31.309Z,58.85
2019-05-22T03:25:02.035Z,60.00
2019-05-22T03:27:45.788Z,61.83
2019-05-22T03:30:24.189Z,59.59
2019-05-22T03:32:54.252Z,60.64
2019-05-22T03:35:23.856Z,62.95
2019-05-22T03:37:53.201Z,63.07
2019-05-22T03:40:22.301Z,63.86
2019-05-22T03:42:51.541Z,62.53
2019-05-22T03:45:22.181Z,66.29
2019-05-22T03:47:51.366Z,63.13
2019-05-22T03:50:20.874Z,61.01
2019-05-22T03:52:49.781Z,63.99
2019-05-22T03:55:18.572Z,65.95
2019-05-22T03:57:47.386Z,65.20
2019-05-22T04:00:17.438Z,66.43
2019-05-22T04:02:49.778Z,62.48
2019-05-22T04:05:19.852Z,63.10
2019-05-22T04:07:50.349Z,59.11
2019-05-22T04:10:19.377Z,60.05
2019-05-22T04:12:48.364Z,62.09
2019-05-22T04:15:17.236Z,61.85
2019-05-22T04:17:46.456Z,63.50
2019-05-22T04:20:17.963Z,57.90
2019-05-22T04:22:46.752Z,58.78
2019-05-22T04:25:15.720Z,58.00
2019-05-22T04:27:44.571Z,59.54
2019-05-22T04:30:14.456Z,57.68
2019-05-22T04:32:44.985Z,62.49
2019-05-22T04:35:17.657Z,58.21
2019-05-22T04:37:49.213Z,58.64
2019-05-22T04:40:56.661Z,57.05
2019-05-22T04:43:26.709Z,56.11
2019-05-22T04:45:56.946Z,61.64
2019-05-22T04:48:26.966Z,60.52
2019-05-22T04:50:58.790Z,61.66
2019-05-22T04:53:29.745Z,61.65
2019-05-22T04:55:58.793Z,56.53
2019-05-22T04:58:31.216Z,60.38
2019-05-22T05:01:00.174Z,58.78
2019-05-22T05:03:30.130Z,58.33
2019-05-22T05:05:59.186Z,57.64
2019-05-22T05:08:29.121Z,58.51
2019-05-22T05:11:02.290Z,59.38
2019-05-22T05:13:31.904Z,60.32
2019-05-22T05:16:01.474Z,57.30
2019-05-22T05:18:32.612Z,59.37
2019-05-22T05:21:01.265Z,59.02
2019-05-22T05:23:29.874Z,58.14
2019-05-22T05:25:59.576Z,58.67
2019-05-22T05:28:28.599Z,59.46
2019-05-22T05:30:57.726Z,61.29
2019-05-22T05:33:26.930Z,61.96
2019-05-22T05:35:56.341Z,60.88
2019-05-22T05:38:33.869Z,62.54
2019-05-22T05:41:03.320Z,58.60
2019-05-22T05:43:32.373Z,61.55
2019-05-22T05:46:01.113Z,59.00
2019-05-22T05:48:31.449Z,61.14
2019-05-22T05:51:33.181Z,59.70
2019-05-22T05:54:07.325Z,59.43
2019-05-22T05:56:37.039Z,59.31
2019-05-22T05:59:07.480Z,60.86
2019-05-22T06:01:48.248Z,61.12
2019-05-22T06:04:34.010Z,58.94
2019-05-22T06:07:27.829Z,55.97
2019-05-22T06:10:42.300Z,56.70
2019-05-22T06:13:11.540Z,57.26
2019-05-22T06:16:30.924Z,57.02
2019-05-22T06:18:59.626Z,56.20
2019-05-22T06:21:28.529Z,58.62
2019-05-22T06:24:25.179Z,56.66
2019-05-22T06:27:08.936Z,57.70
2019-05-22T06:29:55.774Z,59.11
2019-05-22T06:33:02.983Z,60.10
2019-05-22T06:35:37.539Z,59.56
2019-05-22T06:38:21.157Z,61.91
2019-05-22T06:40:50.244Z,59.02
2019-05-22T06:43:57.547Z,60.89
2019-05-22T06:46:46.632Z,58.30
2019-05-22T06:49:43.482Z,59.69
2019-05-22T06:52:12.615Z,58.76
2019-05-22T06:54:41.553Z,59.45
2019-05-22T06:57:14.670Z,60.21
2019-05-22T06:59:44.791Z,59.93
2019-05-22T07:02:14.915Z,58.51
2019-05-22T07:04:44.111Z,58.69
2019-05-22T07:07:13.825Z,59.00
2019-05-22T07:09:44.719Z,56.45
2019-05-22T07:12:15.654Z,58.92
2019-05-22T07:15:42.316Z,56.75
2019-05-22T07:18:13.388Z,56.11
2019-05-22T07:20:42.729Z,57.42
2019-05-22T07:23:20.525Z,56.17
2019-05-22T07:25:51.714Z,57.14
2019-05-22T07:28:23.817Z,56.49
2019-05-22T07:30:53.592Z,57.47
2019-05-22T07:33:22.910Z,55.70
2019-05-22T07:36:08.753Z,57.35
2019-05-22T07:38:22.729Z,56.18
2019-05-22T07:40:51.995Z,56.20
2019-05-22T07:43:21.946Z,57.82
2019-05-22T07:45:52.738Z,59.20
2019-05-22T07:48:23.254Z,56.51
2019-05-22T07:50:54.105Z,58.46
2019-05-22T07:53:25.078Z,57.20
2019-05-22T07:55:54.833Z,57.31
2019-05-22T07:58:23.994Z,57.88
2019-05-22T08:01:01.825Z,60.30
2019-05-22T08:03:31.818Z,59.19
2019-05-22T08:06:01.617Z,55.96
2019-05-22T08:08:33.055Z,55.80
2019-05-22T08:11:02.208Z,54.28
2019-05-22T08:13:32.153Z,54.99
2019-05-22T08:16:00.904Z,55.36
2019-05-22T08:18:32.611Z,56.78
2019-05-22T08:21:01.873Z,56.89
2019-05-22T08:23:30.988Z,59.87
2019-05-22T08:26:00.871Z,57.96
2019-05-22T08:28:31.698Z,57.32
2019-05-22T08:31:01.243Z,58.83
2019-05-22T08:33:31.710Z,58.00
2019-05-22T08:36:01.968Z,55.30
2019-05-22T08:38:32.613Z,55.07
2019-05-22T08:41:02.933Z,53.49
2019-05-22T08:43:49.564Z,56.65
2019-05-22T08:46:04.909Z,59.85
2019-05-22T08:48:34.476Z,55.99
2019-05-22T08:51:04.987Z,58.15
2019-05-22T08:53:46.752Z,54.29
2019-05-22T08:56:05.082Z,55.64
2019-05-22T08:58:38.938Z,55.79
2019-05-22T09:01:08.682Z,58.24
2019-05-22T09:03:37.720Z,58.99
2019-05-22T09:06:06.565Z,58.64
2019-05-22T09:08:35.368Z,58.90
2019-05-22T09:11:04.457Z,60.13
2019-05-22T09:13:33.737Z,60.65
2019-05-22T09:16:03.030Z,59.50
2019-05-22T09:18:32.119Z,62.02
2019-05-22T09:21:01.325Z,58.35
2019-05-22T09:23:30.935Z,59.75
2019-05-22T09:26:00.070Z,56.20
2019-05-22T09:28:29.263Z,54.97
2019-05-22T09:30:57.955Z,55.83
2019-05-22T09:33:27.868Z,55.46
2019-05-22T09:35:57.123Z,54.93
2019-05-22T09:38:25.828Z,54.72
2019-05-22T09:40:54.521Z,55.52
2019-05-22T09:43:23.483Z,55.21
2019-05-22T09:45:52.295Z,59.00
2019-05-22T09:48:21.351Z,58.50
2019-05-22T09:50:50.852Z,58.09
2019-05-22T09:53:21.388Z,57.27
2019-05-22T09:55:50.363Z,55.55
2019-05-22T09:58:19.184Z,54.42
2019-05-22T10:00:47.826Z,56.56
2019-05-22T10:03:16.856Z,58.26
2019-05-22T10:05:46.349Z,54.90
2019-05-22T10:08:15.325Z,54.59
2019-05-22T10:10:44.592Z,55.31
2019-05-22T10:13:13.388Z,54.54
2019-05-22T10:15:43.103Z,52.26
2019-05-22T10:18:11.889Z,53.28
2019-05-22T10:20:41.022Z,55.41
2019-05-22T10:23:15.466Z,52.99
2019-05-22T10:25:40.745Z,54.87
2019-05-22T10:28:09.898Z,53.54
2019-05-22T10:30:38.750Z,51.17
2019-05-22T10:33:07.673Z,50.31
2019-05-22T10:35:37.271Z,53.64
2019-05-22T10:38:07.372Z,51.84
2019-05-22T10:40:36.299Z,52.52
2019-05-22T10:43:05.389Z,53.56
2019-05-22T10:45:34.402Z,51.00
2019-05-22T10:48:03.294Z,50.55
2019-05-22T10:50:31.903Z,50.85
2019-05-22T10:53:00.619Z,51.30
2019-05-22T10:55:29.869Z,47.85
2019-05-22T10:57:58.683Z,49.15
2019-05-22T11:00:27.449Z,50.93
2019-05-22T11:02:56.387Z,51.28
2019-05-22T11:05:25.458Z,51.28
2019-05-22T11:07:54.126Z,46.57
2019-05-22T11:10:24.331Z,49.81
2019-05-22T11:12:53.152Z,47.75
2019-05-22T11:15:22.549Z,47.16
2019-05-22T11:17:51.507Z,47.52
2019-05-22T11:20:20.835Z,46.62
2019-05-22T11:22:50.611Z,46.20
2019-05-22T11:25:20.302Z,46.83
2019-05-22T11:27:48.993Z,46.26
2019-05-22T11:30:18.256Z,46.66
2019-05-22T11:32:46.878Z,49.53
2019-05-22T11:35:16.148Z,49.87
2019-05-22T11:37:44.902Z,49.66
2019-05-22T11:40:14.174Z,48.05
2019-05-22T11:42:42.867Z,47.81
2019-05-22T11:45:14.074Z,47.22
2019-05-22T11:47:42.858Z,47.00
2019-05-22T11:50:12.330Z,45.30
2019-05-22T11:52:42.184Z,46.57
2019-05-22T11:57:49.111Z,46.64
2019-05-22T12:00:19.830Z,46.66
2019-05-22T12:02:49.643Z,45.55
2019-05-22T12:05:19.199Z,44.68
2019-05-22T12:07:48.765Z,43.78
2019-05-22T12:10:20.539Z,42.86
2019-05-22T12:12:50.991Z,42.59
2019-05-22T12:15:22.866Z,43.05
2019-05-22T12:17:51.762Z,41.76
2019-05-22T12:20:22.133Z,43.58
2019-05-22T12:22:50.927Z,43.41
2019-05-22T12:25:19.911Z,43.65
2019-05-22T12:27:48.896Z,44.58
2019-05-22T12:30:18.263Z,42.49
2019-05-22T12:32:46.994Z,44.13
2019-05-22T12:35:16.066Z,42.38
2019-05-22T12:37:44.851Z,42.06
2019-05-22T12:40:15.571Z,40.44
2019-05-22T12:42:45.016Z,40.35
2019-05-22T12:45:15.446Z,40.63
2019-05-22T12:47:44.398Z,42.46
2019-05-22T12:50:14.371Z,40.98
2019-05-22T12:52:46.998Z,41.13
2019-05-22T12:55:16.968Z,40.18
2019-05-22T12:57:46.039Z,40.12
2019-05-22T13:00:15.625Z,37.19
2019-05-22T13:02:44.307Z,38.50
2019-05-22T13:05:14.422Z,39.64
2019-05-22T13:07:43.611Z,37.87
2019-05-22T13:10:12.434Z,39.80
2019-05-22T13:12:41.283Z,39.09
2019-05-22T13:15:11.102Z,39.72
2019-05-22T13:17:40.922Z,41.96
2019-05-22T13:20:10.279Z,38.65
2019-05-22T13:22:43.611Z,38.55
2019-05-22T13:25:12.503Z,38.29
2019-05-22T13:27:41.825Z,39.37
2019-05-22T13:30:12.051Z,39.88
2019-05-22T13:32:41.700Z,40.44
2019-05-22T13:35:11.847Z,39.46
2019-05-22T13:37:40.629Z,40.14
2019-05-22T13:40:26.570Z,39.28
2019-05-22T13:42:41.128Z,39.55
2019-05-22T13:45:27.761Z,38.40
2019-05-22T13:47:43.430Z,38.26
2019-05-22T13:50:12.744Z,37.93
2019-05-22T13:52:41.828Z,38.01
2019-05-22T13:55:11.354Z,38.40
2019-05-22T13:57:41.851Z,40.06
2019-05-22T14:00:12.078Z,41.89
2019-05-22T14:02:41.006Z,39.98
2019-05-22T14:05:13.778Z,38.96
2019-05-22T14:07:41.099Z,41.02
2019-05-22T14:10:10.018Z,39.98
2019-05-22T14:12:38.640Z,39.61
2019-05-22T14:15:07.281Z,40.03
2019-05-22T14:17:36.017Z,39.61
2019-05-22T14:20:05.218Z,39.88
2019-05-22T14:22:33.933Z,38.19
2019-05-22T14:25:02.664Z,39.14
2019-05-22T14:27:31.333Z,38.19
2019-05-22T14:30:01.252Z,37.37
2019-05-22T14:32:30.880Z,38.06
2019-05-22T14:34:59.876Z,38.42
2019-05-22T14:37:28.784Z,39.49
2019-05-22T14:39:57.683Z,40.70
2019-05-22T14:42:26.461Z,39.39
2019-05-22T14:44:55.274Z,38.76
2019-05-22T14:47:24.118Z,37.84
2019-05-22T14:49:52.748Z,37.74
2019-05-22T14:52:21.925Z,37.98
2019-05-22T14:54:50.718Z,38.46
2019-05-22T14:57:19.490Z,38.05
2019-05-22T14:59:48.181Z,38.12
2019-05-22T15:02:17.513Z,38.15
2019-05-22T15:04:46.437Z,38.11
2019-05-22T15:07:15.422Z,38.13
2019-05-22T15:09:44.089Z,37.26
2019-05-22T15:12:12.718Z,39.50
2019-05-22T15:14:41.722Z,38.49
2019-05-22T15:17:10.935Z,37.39
2019-05-22T15:19:39.589Z,38.29
2019-05-22T15:22:09.478Z,37.52
2019-05-22T15:24:38.488Z,38.14
2019-05-22T15:27:08.212Z,39.20
2019-05-22T15:29:36.921Z,38.72
2019-05-22T15:32:07.916Z,39.40
2019-05-22T15:34:38.564Z,39.32
2019-05-22T15:37:09.387Z,39.60
2019-05-22T15:39:38.479Z,38.13
2019-05-22T15:42:08.210Z,37.93
2019-05-22T15:44:37.481Z,38.34
2019-05-22T15:47:06.583Z,36.68
2019-05-22T15:49:35.594Z,37.82
2019-05-22T15:52:07.298Z,37.08
2019-05-22T15:54:37.591Z,38.14
2019-05-22T15:57:09.862Z,38.06
2019-05-22T15:59:40.052Z,36.37
2019-05-22T16:02:09.308Z,36.15
2019-05-22T16:04:46.200Z,37.09
2019-05-22T16:07:17.067Z,36.93
2019-05-22T16:09:47.507Z,36.77
2019-05-22T16:12:16.695Z,36.73
2019-05-22T16:14:45.483Z,37.64
2019-05-22T16:17:14.794Z,36.45
2019-05-22T16:19:44.563Z,36.05
2019-05-22T16:22:13.868Z,38.29
2019-05-22T16:27:12.711Z,37.60
2019-05-22T16:29:41.972Z,37.53
2019-05-22T16:32:14.387Z,39.82
2019-05-22T16:34:43.338Z,37.61
2019-05-22T16:37:12.497Z,37.86
2019-05-22T16:39:42.099Z,37.30
2019-05-22T16:42:11.605Z,36.80
2019-05-22T16:44:40.434Z,37.58
2019-05-22T16:47:09.716Z,36.64
2019-05-22T16:49:38.796Z,37.40
2019-05-22T16:52:09.026Z,37.46
2019-05-22T16:54:38.322Z,37.68
2019-05-22T16:57:08.593Z,37.33
2019-05-22T16:59:39.038Z,36.37
2019-05-22T17:02:08.256Z,37.29
2019-05-22T17:04:36.914Z,36.19
2019-05-22T17:07:06.691Z,37.05
2019-05-22T17:09:36.158Z,37.80
2019-05-22T17:12:07.811Z,37.15
2019-05-22T17:14:36.485Z,37.33
2019-05-22T17:17:05.610Z,38.09
2019-05-22T17:19:35.026Z,37.00
2019-05-22T17:22:03.773Z,36.73
2019-05-22T17:24:34.372Z,37.60
2019-05-22T17:27:05.099Z,38.84
2019-05-22T17:29:34.180Z,37.79
2019-05-22T17:32:04.249Z,37.76
2019-05-22T17:34:34.444Z,37.05
2019-05-22T17:37:08.560Z,37.81
2019-05-22T17:39:39.219Z,37.79
2019-05-22T17:42:10.611Z,37.63
2019-05-22T17:44:39.368Z,38.36
2019-05-22T17:47:09.126Z,37.62
2019-05-22T17:49:38.410Z,37.94
2019-05-22T17:52:12.052Z,40.13
2019-05-22T17:54:39.962Z,38.14
2019-05-22T17:57:10.960Z,37.37
2019-05-22T17:59:40.171Z,37.67
2019-05-22T18:02:10.933Z,36.53
2019-05-22T18:04:39.862Z,37.42
2019-05-22T18:07:09.329Z,38.93
2019-05-22T18:09:38.661Z,38.10
2019-05-22T18:12:08.688Z,38.34
2019-05-22T18:14:37.771Z,38.44
2019-05-22T18:17:07.696Z,39.70
2019-05-22T18:19:36.710Z,40.33
2019-05-22T18:22:06.184Z,40.38
2019-05-22T18:24:34.938Z,40.29
2019-05-22T18:27:03.946Z,42.19
2019-05-22T18:29:35.827Z,43.13
2019-05-22T18:32:06.598Z,42.62
2019-05-22T18:34:35.319Z,43.08
2019-05-22T18:37:04.057Z,43.11
2019-05-22T18:39:33.946Z,44.05
2019-05-22T18:42:02.754Z,44.11
2019-05-22T18:44:31.484Z,44.91
2019-05-22T18:47:00.493Z,44.77
2019-05-22T18:49:29.184Z,46.13
2019-05-22T18:51:57.897Z,45.72
2019-05-22T18:54:26.985Z,46.14
2019-05-22T18:56:55.768Z,46.58
2019-05-22T18:59:24.504Z,45.39
2019-05-22T19:01:53.385Z,45.69
2019-05-22T19:04:22.451Z,45.82
2019-05-22T19:06:51.414Z,46.95
2019-05-22T19:09:20.254Z,46.62
2019-05-22T19:11:49.198Z,46.36
2019-05-22T19:14:18.420Z,46.77
2019-05-22T19:16:47.110Z,47.86
2019-05-22T19:19:16.039Z,48.16
2019-05-22T19:21:44.638Z,47.64
2019-05-22T19:24:14.093Z,49.10
2019-05-22T19:27:04.092Z,47.60
2019-05-22T19:29:33.052Z,47.04
2019-05-22T19:32:01.940Z,48.94
2019-05-22T19:34:31.357Z,50.46
2019-05-22T19:37:00.048Z,50.75
2019-05-22T19:39:29.707Z,51.54
2019-05-22T19:42:02.999Z,52.16
2019-05-22T19:44:29.109Z,52.27
2019-05-22T19:46:57.980Z,50.99
2019-05-22T19:49:26.718Z,49.71
2019-05-22T19:51:56.857Z,51.08
2019-05-22T19:54:26.769Z,50.66
2019-05-22T19:56:55.690Z,49.37
2019-05-22T19:59:25.117Z,49.26
2019-05-22T20:01:54.036Z,48.90
2019-05-22T20:04:23.574Z,49.41
2019-05-22T20:06:54.081Z,49.80
2019-05-22T20:09:23.127Z,49.26
2019-05-22T20:11:52.661Z,48.55
2019-05-22T20:14:21.660Z,50.03
2019-05-22T20:16:50.743Z,48.76
2019-05-22T20:19:19.423Z,48.38
2019-05-22T20:21:48.218Z,48.10
2019-05-22T20:24:17.254Z,50.10
2019-05-22T20:26:46.028Z,49.25
2019-05-22T20:29:16.461Z,50.38
2019-05-22T20:31:45.474Z,50.99
2019-05-22T20:34:14.469Z,48.29
2019-05-22T20:36:43.196Z,48.23
2019-05-22T20:39:14.615Z,47.97
2019-05-22T20:41:43.682Z,47.80
2019-05-22T20:44:12.538Z,48.03
2019-05-22T20:46:43.740Z,49.74
2019-05-22T20:49:13.010Z,51.68
2019-05-22T20:51:42.773Z,48.56
2019-05-22T20:54:12.922Z,48.56
2019-05-22T20:56:43.815Z,47.99
2019-05-22T20:59:13.155Z,49.67
2019-05-22T21:01:42.131Z,49.67
2019-05-22T21:04:12.843Z,48.85
2019-05-22T21:06:48.452Z,49.27
2019-05-22T21:09:17.417Z,49.27
2019-05-22T21:11:46.433Z,48.50
2019-05-22T21:14:16.937Z,50.12
2019-05-22T21:16:46.383Z,50.12
2019-05-22T21:19:17.404Z,48.04
2019-05-22T21:21:46.303Z,50.43
2019-05-22T21:24:15.189Z,50.18
2019-05-22T21:26:44.871Z,49.59
2019-05-22T21:29:14.505Z,48.60
2019-05-22T21:31:47.480Z,48.60
2019-05-22T21:34:14.925Z,49.46
2019-05-22T21:36:44.043Z,50.63
2019-05-22T21:39:13.938Z,49.33
2019-05-22T21:41:42.677Z,49.39
2019-05-22T21:44:11.692Z,49.39
2019-05-22T21:46:41.379Z,52.39
2019-05-22T21:49:10.848Z,52.64
2019-05-22T21:51:39.510Z,50.29
2019-05-22T21:54:10.090Z,51.18
2019-05-22T21:56:39.990Z,51.18
2019-05-22T21:59:09.721Z,50.10
2019-05-22T22:01:58.777Z,50.10
2019-05-22T22:04:32.563Z,49.53
2019-05-22T22:07:01.675Z,49.23
2019-05-22T22:09:30.491Z,49.17
2019-05-22T22:12:01.217Z,49.17
2019-05-22T22:14:30.847Z,48.89
2019-05-22T22:17:00.093Z,51.88
2019-05-22T22:19:29.675Z,48.90
2019-05-22T22:21:58.704Z,48.90
2019-05-22T22:24:28.046Z,50.99
2019-05-22T22:26:58.322Z,50.04
2019-05-22T22:29:27.400Z,50.23
2019-05-22T22:31:57.382Z,49.39
2019-05-22T22:34:35.417Z,50.78
2019-05-22T22:37:04.466Z,51.39
2019-05-22T22:39:34.671Z,51.69
2019-05-22T22:42:04.590Z,51.27
2019-05-22T22:44:34.683Z,51.22
2019-05-22T22:47:06.674Z,50.98
2019-05-22T22:49:37.781Z,51.78
2019-05-22T22:52:07.679Z,50.28
2019-05-22T22:54:36.396Z,50.26
2019-05-22T22:57:07.002Z,51.70
2019-05-22T22:59:36.226Z,50.19
2019-05-22T23:02:07.301Z,51.08
2019-05-22T23:04:36.144Z,53.32
2019-05-22T23:07:07.685Z,52.34
2019-05-22T23:09:37.680Z,51.57
2019-05-22T23:12:07.730Z,49.74
2019-05-22T23:14:37.069Z,51.43
2019-05-22T23:17:06.885Z,51.43
2019-05-22T23:19:35.838Z,52.95
2019-05-22T23:22:05.907Z,49.69
2019-05-22T23:24:37.841Z,52.01
2019-05-22T23:27:06.899Z,53.49
2019-05-22T23:29:37.203Z,52.54
2019-05-22T23:32:06.536Z,50.43
2019-05-22T23:34:35.295Z,50.43
2019-05-22T23:37:04.040Z,53.22
2019-05-22T23:39:33.332Z,50.98
2019-05-22T23:42:08.167Z,53.16
2019-05-22T23:44:37.513Z,49.04
2019-05-22T23:47:07.900Z,51.00
2019-05-22T23:49:38.060Z,50.83
2019-05-22T23:52:07.663Z,51.61
2019-05-22T23:54:37.291Z,52.00
2019-05-22T23:57:06.157Z,51.01
2019-05-22T23:59:36.618Z,48.99
